Time;durP1;ratioP1;P1;durP2;ratioP2;P2;SDS_P1;SDS_P2;PMS_P1;PMS_P2;Temp;Humidity;BMP_temperature;BMP_pressure;BME280_temperature;BME280_humidity;BME280_pressure;Samples;Min_cycle;Max_cycle;Signal;HPM_P1;HPM_P2
2022/12/09 00:00:46;;;;;;;199.57;93.85;;;;;;;;;;5076078;28;20481;-80
2022/12/09 00:03:33;;;;;;;209.73;93.88;;;;;;;;;;5076263;28;20045;-81
2022/12/09 00:06:23;;;;;;;224.18;100.13;;;;;;;;;;5076391;28;20044;-80
2022/12/09 00:09:12;;;;;;;239.82;105.50;;;;;;;;;;5076091;28;20040;-79
2022/12/09 00:12:21;;;;;;;266.45;114.75;;;;;;;;;;5076095;28;20044;-80
2022/12/09 00:15:06;;;;;;;256.48;106.53;;;;;;;;;;5082904;28;20044;-81
2022/12/09 00:17:52;;;;;;;257.95;113.45;;;;;;;;;;5075865;28;20056;-79
2022/12/09 00:20:37;;;;;;;313.27;133.55;;;;;;;;;;5082466;28;20493;-81
2022/12/09 00:23:22;;;;;;;340.10;122.80;;;;;;;;;;5082436;28;20040;-79
2022/12/09 00:26:08;;;;;;;327.42;115.60;;;;;;;;;;5076221;28;20048;-80
2022/12/09 00:28:54;;;;;;;304.75;114.60;;;;;;;;;;5082680;28;20363;-81
2022/12/09 00:31:40;;;;;;;277.23;105.78;;;;;;;;;;5081252;28;20474;-78
2022/12/09 00:34:25;;;;;;;288.08;112.60;;;;;;;;;;5067352;28;20044;-78
2022/12/09 00:37:10;;;;;;;283.10;99.85;;;;;;;;;;5081442;28;20052;-80
2022/12/09 00:39:55;;;;;;;250.95;99.55;;;;;;;;;;5082081;28;20041;-78
2022/12/09 00:42:41;;;;;;;240.75;96.80;;;;;;;;;;5081104;28;20040;-80
2022/12/09 00:45:27;;;;;;;253.93;92.22;;;;;;;;;;5081113;28;20393;-79
2022/12/09 00:48:12;;;;;;;293.88;100.35;;;;;;;;;;5080818;28;20045;-80
2022/12/09 00:50:58;;;;;;;249.85;96.95;;;;;;;;;;5081184;28;20060;-78
2022/12/09 00:53:46;;;;;;;283.80;100.28;;;;;;;;;;5075074;28;20044;-80
2022/12/09 00:56:31;;;;;;;242.90;97.82;;;;;;;;;;5074297;28;20044;-78
2022/12/09 00:59:18;;;;;;;302.67;118.25;;;;;;;;;;5075414;28;20036;-80
2022/12/09 01:02:03;;;;;;;289.80;110.13;;;;;;;;;;5066722;28;20044;-78
2022/12/09 01:04:51;;;;;;;326.52;118.13;;;;;;;;;;5074559;28;20048;-80
2022/12/09 01:07:36;;;;;;;290.67;103.30;;;;;;;;;;5074540;28;20481;-78
2022/12/09 01:10:21;;;;;;;283.25;107.10;;;;;;;;;;5073733;28;20362;-80
2022/12/09 01:13:07;;;;;;;299.88;116.50;;;;;;;;;;5072413;28;20481;-78
2022/12/09 01:15:52;;;;;;;373.40;120.65;;;;;;;;;;5073088;28;20048;-79
2022/12/09 01:18:38;;;;;;;279.45;109.40;;;;;;;;;;5073925;28;20049;-78
2022/12/09 01:21:27;;;;;;;314.08;113.80;;;;;;;;;;5074207;28;20048;-80
2022/12/09 01:24:13;;;;;;;303.38;109.07;;;;;;;;;;5059252;28;20044;-79
2022/12/09 01:26:59;;;;;;;256.27;100.07;;;;;;;;;;5068664;28;20040;-77
2022/12/09 01:29:44;;;;;;;312.67;105.95;;;;;;;;;;5100195;28;20040;-78
2022/12/09 01:32:30;;;;;;;297.45;104.75;;;;;;;;;;5076021;28;20044;-78
2022/12/09 01:35:16;;;;;;;327.23;107.18;;;;;;;;;;5074784;28;20080;-78
2022/12/09 01:38:01;;;;;;;397.60;120.35;;;;;;;;;;5074253;28;20048;-78
2022/12/09 01:40:46;;;;;;;289.92;108.93;;;;;;;;;;5079863;28;20036;-78
2022/12/09 01:43:33;;;;;;;358.42;115.00;;;;;;;;;;5074759;28;20048;-78
2022/12/09 01:46:18;;;;;;;299.10;100.28;;;;;;;;;;5074259;28;20052;-78
2022/12/09 01:49:06;;;;;;;265.17;99.45;;;;;;;;;;5074052;28;20397;-79
2022/12/09 01:52:12;;;;;;;249.65;94.75;;;;;;;;;;5080735;28;20042;-78
2022/12/09 01:54:57;;;;;;;235.52;82.40;;;;;;;;;;5073871;28;20052;-79
2022/12/09 01:57:44;;;;;;;291.92;81.45;;;;;;;;;;5073992;28;20041;-78
2022/12/09 02:00:29;;;;;;;313.40;85.95;;;;;;;;;;5065844;28;20040;-78
2022/12/09 02:03:16;;;;;;;253.98;75.03;;;;;;;;;;5079643;28;20037;-79
2022/12/09 02:06:01;;;;;;;272.42;82.90;;;;;;;;;;5065648;28;20052;-79
2022/12/09 02:08:49;;;;;;;304.65;91.78;;;;;;;;;;5079526;28;20048;-80
2022/12/09 02:11:56;;;;;;;264.65;86.22;;;;;;;;;;5065725;28;20378;-78
2022/12/09 02:14:49;;;;;;;263.98;84.18;;;;;;;;;;5073809;28;20041;-78
2022/12/09 02:17:49;;;;;;;308.00;87.63;;;;;;;;;;5073773;28;20048;-78
2022/12/09 02:20:52;;;;;;;243.95;79.40;;;;;;;;;;5065431;28;20044;-78
2022/12/09 02:24:09;;;;;;;227.95;74.22;;;;;;;;;;5065409;28;20033;-79
2022/12/09 02:27:04;;;;;;;327.33;105.32;;;;;;;;;;5079412;28;20052;-79
2022/12/09 02:30:15;;;;;;;386.95;127.47;;;;;;;;;;5065387;28;20402;-80
2022/12/09 02:33:21;;;;;;;418.45;120.78;;;;;;;;;;5065343;28;20386;-80
2022/12/09 02:36:16;;;;;;;265.75;85.50;;;;;;;;;;5065286;28;20041;-80
2022/12/09 02:39:02;;;;;;;290.73;88.32;;;;;;;;;;5065162;28;20041;-80
2022/12/09 02:41:51;;;;;;;388.38;108.88;;;;;;;;;;5064781;28;20040;-81
2022/12/09 02:44:38;;;;;;;419.92;157.25;;;;;;;;;;5073510;28;20382;-80
2022/12/09 02:47:29;;;;;;;311.05;102.15;;;;;;;;;;5065350;28;20052;-81
2022/12/09 02:50:19;;;;;;;377.13;98.80;;;;;;;;;;5078993;28;20049;-81
2022/12/09 02:53:09;;;;;;;361.88;90.63;;;;;;;;;;5063919;28;20398;-79
2022/12/09 02:55:55;;;;;;;276.85;81.93;;;;;;;;;;5078745;28;20516;-80
2022/12/09 02:58:40;;;;;;;350.42;82.38;;;;;;;;;;5080045;28;20489;-81
2022/12/09 03:01:56;;;;;;;273.83;79.50;;;;;;;;;;5073353;28;20041;-79
2022/12/09 03:04:53;;;;;;;317.02;92.53;;;;;;;;;;5073522;28;20040;-78
2022/12/09 03:07:38;;;;;;;430.38;87.80;;;;;;;;;;5073317;28;20474;-80
2022/12/09 03:10:30;;;;;;;360.42;121.07;;;;;;;;;;5073192;28;20049;-80
2022/12/09 03:13:39;;;;;;;290.05;107.68;;;;;;;;;;5073125;28;20044;-79
2022/12/09 03:16:31;;;;;;;402.40;96.38;;;;;;;;;;5073218;28;20049;-80
2022/12/09 03:19:26;;;;;;;239.27;87.20;;;;;;;;;;5073119;28;20048;-78
2022/12/09 03:22:15;;;;;;;331.80;81.57;;;;;;;;;;5073367;28;20044;-80
2022/12/09 03:25:04;;;;;;;336.70;85.32;;;;;;;;;;5073482;28;20045;-80
2022/12/09 03:27:59;;;;;;;256.30;75.35;;;;;;;;;;5073007;28;20036;-80
2022/12/09 03:30:46;;;;;;;281.45;77.78;;;;;;;;;;5073374;28;20201;-80
2022/12/09 03:33:31;;;;;;;285.42;75.22;;;;;;;;;;5075797;28;20044;-80
2022/12/09 03:36:19;;;;;;;254.25;74.10;;;;;;;;;;5076927;28;20501;-80
2022/12/09 03:39:09;;;;;;;279.23;79.97;;;;;;;;;;5076991;28;20485;-80
2022/12/09 03:41:57;;;;;;;308.73;77.25;;;;;;;;;;5080477;28;20049;-78
2022/12/09 03:44:57;;;;;;;264.80;74.75;;;;;;;;;;5101500;28;20032;-79
2022/12/09 03:47:41;;;;;;;336.48;78.38;;;;;;;;;;5083562;28;20052;-80
2022/12/09 03:50:30;;;;;;;313.40;89.35;;;;;;;;;;5083407;28;20044;-80
2022/12/09 03:53:22;;;;;;;321.55;77.10;;;;;;;;;;5075995;28;20048;-80
2022/12/09 03:56:07;;;;;;;339.35;75.72;;;;;;;;;;5076458;28;20053;-79
2022/12/09 03:58:55;;;;;;;210.73;71.03;;;;;;;;;;5076775;28;20044;-78
2022/12/09 04:01:42;;;;;;;374.30;71.70;;;;;;;;;;5075923;28;20040;-79
2022/12/09 04:04:28;;;;;;;288.55;71.53;;;;;;;;;;5075975;28;20048;-80
2022/12/09 04:07:14;;;;;;;317.63;76.85;;;;;;;;;;5075918;28;20044;-80
2022/12/09 04:09:59;;;;;;;264.15;76.15;;;;;;;;;;5076299;28;20045;-80
2022/12/09 04:12:45;;;;;;;229.80;68.95;;;;;;;;;;5082717;28;20052;-78
2022/12/09 04:15:30;;;;;;;344.67;74.25;;;;;;;;;;5082856;28;20036;-78
2022/12/09 04:18:16;;;;;;;225.45;73.15;;;;;;;;;;5075918;28;20373;-79
2022/12/09 04:21:07;;;;;;;282.38;73.38;;;;;;;;;;5075921;28;20040;-80
2022/12/09 04:23:52;;;;;;;245.23;74.25;;;;;;;;;;5076059;28;20470;-78
2022/12/09 04:26:37;;;;;;;402.60;82.18;;;;;;;;;;5075872;28;20036;-78
2022/12/09 04:29:23;;;;;;;302.17;72.07;;;;;;;;;;5075680;28;20478;-78
2022/12/09 04:32:09;;;;;;;330.77;78.65;;;;;;;;;;5075872;28;20045;-81
2022/12/09 04:34:54;;;;;;;275.40;65.20;;;;;;;;;;5075883;28;20044;-78
2022/12/09 04:37:40;;;;;;;206.27;59.13;;;;;;;;;;5075409;28;20486;-78
2022/12/09 04:40:25;;;;;;;216.68;65.13;;;;;;;;;;5075759;28;20393;-78
2022/12/09 04:43:11;;;;;;;237.38;68.72;;;;;;;;;;5074770;28;20044;-80
2022/12/09 04:46:02;;;;;;;207.38;59.63;;;;;;;;;;5075317;28;20040;-80
2022/12/09 04:48:47;;;;;;;201.23;55.85;;;;;;;;;;5082052;28;20048;-80
2022/12/09 04:51:33;;;;;;;178.35;58.78;;;;;;;;;;5075458;28;20041;-80
2022/12/09 04:54:18;;;;;;;168.48;50.15;;;;;;;;;;5075085;28;20044;-79
2022/12/09 04:57:04;;;;;;;161.30;47.28;;;;;;;;;;5074859;28;20045;-78
2022/12/09 04:59:49;;;;;;;147.75;51.42;;;;;;;;;;5075168;28;20482;-78
2022/12/09 05:02:35;;;;;;;149.82;50.20;;;;;;;;;;5074975;28;20040;-79
2022/12/09 05:05:21;;;;;;;197.88;63.10;;;;;;;;;;5066368;28;20037;-78
2022/12/09 05:08:07;;;;;;;175.35;54.50;;;;;;;;;;5074856;28;20041;-79
2022/12/09 05:10:53;;;;;;;245.40;62.25;;;;;;;;;;5074664;28;20045;-77
2022/12/09 05:13:37;;;;;;;217.45;63.20;;;;;;;;;;5075058;28;20045;-79
2022/12/09 05:16:23;;;;;;;142.82;48.65;;;;;;;;;;5074624;28;20044;-79
2022/12/09 05:19:09;;;;;;;177.70;62.83;;;;;;;;;;5074581;28;20044;-78
2022/12/09 05:21:54;;;;;;;190.15;59.65;;;;;;;;;;5074833;28;20048;-79
2022/12/09 05:24:42;;;;;;;150.48;51.47;;;;;;;;;;5073967;28;20048;-80
2022/12/09 05:27:27;;;;;;;183.60;56.75;;;;;;;;;;5074295;28;20048;-77
2022/12/09 05:30:13;;;;;;;221.52;59.90;;;;;;;;;;5074326;28;20048;-78
2022/12/09 05:32:59;;;;;;;187.30;56.70;;;;;;;;;;5074697;28;20481;-78
2022/12/09 05:35:44;;;;;;;229.27;59.38;;;;;;;;;;5074872;28;20135;-79
2022/12/09 05:38:29;;;;;;;248.57;60.08;;;;;;;;;;5073857;28;20040;-79
2022/12/09 05:41:17;;;;;;;197.75;58.55;;;;;;;;;;5058934;28;20049;-82
2022/12/09 05:44:02;;;;;;;235.63;58.97;;;;;;;;;;5074870;28;20044;-79
2022/12/09 05:46:46;;;;;;;194.88;57.42;;;;;;;;;;5073973;28;20040;-78
2022/12/09 05:49:33;;;;;;;186.68;52.45;;;;;;;;;;5074078;28;20041;-79
2022/12/09 05:52:18;;;;;;;213.70;55.50;;;;;;;;;;5073611;28;20052;-80
2022/12/09 05:55:06;;;;;;;184.40;57.30;;;;;;;;;;5087903;28;20048;-79
2022/12/09 05:57:51;;;;;;;198.88;59.28;;;;;;;;;;5092564;28;20486;-80
2022/12/09 06:00:36;;;;;;;237.73;83.05;;;;;;;;;;5073906;28;20044;-81
2022/12/09 06:03:23;;;;;;;230.50;60.03;;;;;;;;;;5073551;28;20071;-81
2022/12/09 06:06:11;;;;;;;181.10;61.85;;;;;;;;;;5080207;28;20045;-81
2022/12/09 06:08:58;;;;;;;184.52;52.47;;;;;;;;;;5058817;28;20044;-79
2022/12/09 06:11:44;;;;;;;144.68;50.83;;;;;;;;;;5058628;28;20048;-80
2022/12/09 06:14:29;;;;;;;138.45;50.00;;;;;;;;;;5073469;28;20052;-81
2022/12/09 06:17:15;;;;;;;191.30;62.63;;;;;;;;;;5071723;28;20855;-81
2022/12/09 06:20:01;;;;;;;150.05;51.95;;;;;;;;;;5072042;28;20052;-81
2022/12/09 06:22:46;;;;;;;166.52;55.30;;;;;;;;;;5072396;28;20053;-80
2022/12/09 06:25:31;;;;;;;172.60;61.58;;;;;;;;;;5077218;28;20052;-80
2022/12/09 06:28:18;;;;;;;217.65;66.80;;;;;;;;;;5073381;28;20394;-80
2022/12/09 06:31:03;;;;;;;171.30;64.28;;;;;;;;;;5073460;28;20040;-79
2022/12/09 06:33:48;;;;;;;191.70;66.35;;;;;;;;;;5073519;28;20041;-79
2022/12/09 06:36:34;;;;;;;190.48;66.70;;;;;;;;;;5073323;28;20041;-79
2022/12/09 06:39:20;;;;;;;235.75;78.60;;;;;;;;;;5073842;28;20048;-79
2022/12/09 06:42:05;;;;;;;230.68;84.90;;;;;;;;;;5073236;28;20489;-80
2022/12/09 06:44:51;;;;;;;210.43;77.05;;;;;;;;;;5073946;28;20044;-79
2022/12/09 06:47:36;;;;;;;172.52;68.93;;;;;;;;;;5073419;28;20048;-80
2022/12/09 06:50:22;;;;;;;189.52;69.38;;;;;;;;;;5079882;28;20486;-81
2022/12/09 06:53:08;;;;;;;180.00;67.53;;;;;;;;;;5073115;28;20045;-79
2022/12/09 06:55:53;;;;;;;173.63;72.57;;;;;;;;;;5073396;28;20048;-80
2022/12/09 06:58:43;;;;;;;130.10;47.42;;;;;;;;;;5073192;28;20044;-80
2022/12/09 07:01:29;;;;;;;150.25;56.28;;;;;;;;;;5073253;28;20044;-79
2022/12/09 07:04:15;;;;;;;147.93;59.60;;;;;;;;;;5073185;28;20052;-79
2022/12/09 07:07:00;;;;;;;130.40;47.50;;;;;;;;;;5080607;28;20045;-79
2022/12/09 07:09:47;;;;;;;159.40;63.72;;;;;;;;;;5078003;28;20060;-79
2022/12/09 07:12:33;;;;;;;205.63;85.15;;;;;;;;;;5077115;28;20482;-79
2022/12/09 07:15:18;;;;;;;189.18;81.47;;;;;;;;;;5077310;28;20049;-79
2022/12/09 07:18:06;;;;;;;195.68;74.10;;;;;;;;;;5076661;28;20044;-79
2022/12/09 07:20:51;;;;;;;178.65;64.63;;;;;;;;;;5076981;28;20036;-79
2022/12/09 07:23:38;;;;;;;133.82;62.38;;;;;;;;;;5076845;28;20049;-79
2022/12/09 07:26:23;;;;;;;194.10;97.35;;;;;;;;;;5076860;28;20040;-79
2022/12/09 07:29:08;;;;;;;149.20;67.22;;;;;;;;;;5076663;28;20041;-79
2022/12/09 07:31:53;;;;;;;249.23;113.60;;;;;;;;;;5076604;28;20044;-78
2022/12/09 07:34:38;;;;;;;159.23;66.25;;;;;;;;;;5076918;28;20048;-80
2022/12/09 07:37:24;;;;;;;196.95;82.60;;;;;;;;;;5076583;28;20037;-79
2022/12/09 07:40:10;;;;;;;234.90;102.60;;;;;;;;;;5076718;28;20394;-79
2022/12/09 07:42:55;;;;;;;118.53;51.80;;;;;;;;;;5076553;28;20044;-80
2022/12/09 07:45:41;;;;;;;133.85;60.97;;;;;;;;;;5082138;28;20049;-80
2022/12/09 07:48:26;;;;;;;101.25;46.70;;;;;;;;;;5076368;28;20044;-78
2022/12/09 07:51:12;;;;;;;128.68;55.67;;;;;;;;;;5076676;28;20045;-81
2022/12/09 07:53:57;;;;;;;120.28;54.25;;;;;;;;;;5076256;28;20482;-80
2022/12/09 07:56:43;;;;;;;125.10;55.92;;;;;;;;;;5076907;28;20385;-78
2022/12/09 07:59:29;;;;;;;129.63;59.88;;;;;;;;;;5076403;28;20032;-78
2022/12/09 08:02:14;;;;;;;133.77;65.53;;;;;;;;;;5076392;28;20040;-79
2022/12/09 08:05:01;;;;;;;156.70;82.57;;;;;;;;;;5076097;28;20053;-79
2022/12/09 08:07:46;;;;;;;186.07;99.20;;;;;;;;;;5083521;28;20052;-80
2022/12/09 08:10:31;;;;;;;136.68;67.90;;;;;;;;;;5077189;28;20040;-80
2022/12/09 08:13:16;;;;;;;164.10;86.88;;;;;;;;;;5078099;28;20041;-79
2022/12/09 08:16:07;;;;;;;127.60;64.22;;;;;;;;;;5076117;28;20044;-79
2022/12/09 08:18:52;;;;;;;168.85;85.97;;;;;;;;;;5075839;28;20040;-80
2022/12/09 08:21:37;;;;;;;155.20;81.05;;;;;;;;;;5075535;28;20036;-80
2022/12/09 08:24:23;;;;;;;169.63;86.25;;;;;;;;;;5075740;28;20393;-80
2022/12/09 08:27:09;;;;;;;184.70;92.00;;;;;;;;;;5060599;28;20052;-81
2022/12/09 08:29:54;;;;;;;178.05;89.63;;;;;;;;;;5075922;28;20052;-81
2022/12/09 08:32:39;;;;;;;169.48;91.35;;;;;;;;;;5075477;28;20474;-78
2022/12/09 08:35:28;;;;;;;166.20;85.30;;;;;;;;;;5075475;28;20041;-79
2022/12/09 08:38:14;;;;;;;162.68;89.53;;;;;;;;;;5075452;28;20040;-79
2022/12/09 08:41:10;;;;;;;174.10;90.22;;;;;;;;;;5075213;28;20397;-80
2022/12/09 08:43:56;;;;;;;169.88;90.32;;;;;;;;;;5075215;28;20049;-81
2022/12/09 08:46:47;;;;;;;163.20;88.20;;;;;;;;;;5086621;28;20068;-78
2022/12/09 08:49:33;;;;;;;160.15;87.53;;;;;;;;;;5083618;28;20486;-80
2022/12/09 08:52:17;;;;;;;106.60;53.75;;;;;;;;;;5076152;28;20044;-79
2022/12/09 08:55:04;;;;;;;82.90;41.35;;;;;;;;;;5059675;28;20048;-75
2022/12/09 08:57:49;;;;;;;78.25;35.47;;;;;;;;;;5075332;28;20040;-79
2022/12/09 09:00:34;;;;;;;78.68;38.20;;;;;;;;;;5080826;28;20044;-78
2022/12/09 09:03:20;;;;;;;71.85;36.08;;;;;;;;;;5079137;28;20044;-80
2022/12/09 09:06:06;;;;;;;80.22;38.58;;;;;;;;;;5080292;28;20041;-80
2022/12/09 09:08:51;;;;;;;66.75;33.15;;;;;;;;;;5078649;28;20045;-79
2022/12/09 09:11:37;;;;;;;59.20;31.75;;;;;;;;;;5078324;28;20041;-80
2022/12/09 09:14:22;;;;;;;56.75;28.73;;;;;;;;;;5074927;28;20036;-80
2022/12/09 09:17:08;;;;;;;71.93;33.08;;;;;;;;;;5083011;28;20061;-80
2022/12/09 09:19:53;;;;;;;84.85;42.03;;;;;;;;;;5089239;28;20486;-79
2022/12/09 09:22:39;;;;;;;77.82;35.95;;;;;;;;;;5074369;28;20048;-79
2022/12/09 09:25:24;;;;;;;65.47;29.42;;;;;;;;;;5074260;28;20044;-78
2022/12/09 09:28:10;;;;;;;40.38;19.50;;;;;;;;;;5074248;28;20049;-80
2022/12/09 09:31:04;;;;;;;54.60;25.92;;;;;;;;;;5072991;28;20115;-80
2022/12/09 09:33:50;;;;;;;61.53;28.58;;;;;;;;;;5066094;28;20045;-79
2022/12/09 09:36:35;;;;;;;94.40;45.30;;;;;;;;;;5081320;28;20424;-79
2022/12/09 09:39:21;;;;;;;74.55;34.75;;;;;;;;;;5074584;28;20485;-81
2022/12/09 09:42:14;;;;;;;57.05;26.02;;;;;;;;;;5074374;28;20036;-81
2022/12/09 09:45:05;;;;;;;61.30;23.70;;;;;;;;;;5081728;28;20040;-81
2022/12/09 09:48:01;;;;;;;37.78;14.35;;;;;;;;;;5074929;28;20397;-82
2022/12/09 09:51:08;;;;;;;37.63;13.00;;;;;;;;;;5075332;28;20048;-82
2022/12/09 09:53:54;;;;;;;30.80;11.27;;;;;;;;;;5074325;28;20405;-77
2022/12/09 09:57:00;;;;;;;23.20;8.07;;;;;;;;;;5075782;28;20036;-77
2022/12/09 09:59:54;;;;;;;37.25;13.18;;;;;;;;;;5073860;28;20044;-76
2022/12/09 10:02:54;;;;;;;45.30;17.70;;;;;;;;;;5073735;28;20485;-75
2022/12/09 10:05:51;;;;;;;43.90;14.40;;;;;;;;;;5074796;28;20037;-76
2022/12/09 10:08:45;;;;;;;57.20;22.90;;;;;;;;;;5080912;28;20056;-77
2022/12/09 10:11:38;;;;;;;37.42;16.15;;;;;;;;;;5074131;28;20040;-77
2022/12/09 10:14:33;;;;;;;58.22;23.15;;;;;;;;;;5073892;28;20045;-76
2022/12/09 10:17:38;;;;;;;52.47;22.83;;;;;;;;;;5074329;28;20044;-77
2022/12/09 10:20:27;;;;;;;71.45;29.98;;;;;;;;;;5075522;28;20037;-77
2022/12/09 10:23:15;;;;;;;57.10;24.30;;;;;;;;;;5078826;28;20040;-77
2022/12/09 10:26:04;;;;;;;60.40;25.60;;;;;;;;;;5089888;28;20037;-77
2022/12/09 10:28:58;;;;;;;64.10;25.52;;;;;;;;;;5074211;28;20060;-79
2022/12/09 10:31:44;;;;;;;65.60;25.73;;;;;;;;;;5065311;28;20045;-80
2022/12/09 10:34:29;;;;;;;64.75;21.25;;;;;;;;;;5080045;28;20036;-80
2022/12/09 10:37:24;;;;;;;57.00;22.92;;;;;;;;;;5080320;28;20041;-82
2022/12/09 10:40:09;;;;;;;53.53;20.75;;;;;;;;;;5087708;28;20075;-81
2022/12/09 10:46:05;;;;;;;59.35;21.73;;;;;;;;;;5088940;28;20048;-81
2022/12/09 10:48:56;;;;;;;50.00;20.30;;;;;;;;;;5086548;28;20048;-81
2022/12/09 10:51:48;;;;;;;44.95;19.52;;;;;;;;;;5069444;28;20044;-81
2022/12/09 10:54:39;;;;;;;55.88;21.55;;;;;;;;;;5096667;28;20052;-82
2022/12/09 10:57:26;;;;;;;55.45;20.10;;;;;;;;;;5069454;28;20048;-79
2022/12/09 11:00:23;;;;;;;64.57;21.38;;;;;;;;;;5077598;28;20049;-79
2022/12/09 11:03:24;;;;;;;68.65;24.63;;;;;;;;;;5078908;28;20056;-80
2022/12/09 11:06:29;;;;;;;52.00;20.02;;;;;;;;;;5071646;28;20052;-80
2022/12/09 11:09:23;;;;;;;61.67;21.00;;;;;;;;;;5079195;28;20048;-79
2022/12/09 11:12:27;;;;;;;54.63;20.85;;;;;;;;;;5086655;28;20041;-79
2022/12/09 11:15:38;;;;;;;53.90;20.40;;;;;;;;;;5077000;28;20045;-79
2022/12/09 11:18:31;;;;;;;46.83;15.80;;;;;;;;;;5078583;28;20045;-79
2022/12/09 11:21:33;;;;;;;57.55;22.90;;;;;;;;;;5079497;28;20049;-80
2022/12/09 11:24:23;;;;;;;75.95;28.80;;;;;;;;;;5077184;28;20041;-78
2022/12/09 11:27:25;;;;;;;44.40;13.45;;;;;;;;;;5077549;28;20048;-79
2022/12/09 11:30:18;;;;;;;53.08;16.38;;;;;;;;;;5077480;28;20048;-79
2022/12/09 11:33:17;;;;;;;46.60;14.95;;;;;;;;;;5078404;28;20053;-79
2022/12/09 11:36:08;;;;;;;43.95;15.05;;;;;;;;;;5078190;28;20048;-79
2022/12/09 11:39:14;;;;;;;50.65;16.27;;;;;;;;;;5076523;28;20032;-78
2022/12/09 11:42:16;;;;;;;46.63;11.50;;;;;;;;;;5076810;28;20041;-80
2022/12/09 11:45:16;;;;;;;39.28;14.98;;;;;;;;;;5077843;28;20044;-80
2022/12/09 11:48:28;;;;;;;43.08;13.75;;;;;;;;;;5076932;28;20044;-79
2022/12/09 11:51:27;;;;;;;35.38;13.10;;;;;;;;;;5076360;28;20049;-78
2022/12/09 11:54:49;;;;;;;57.28;15.40;;;;;;;;;;5075328;28;20044;-79
2022/12/09 11:57:43;;;;;;;46.60;13.57;;;;;;;;;;5082894;28;20044;-79
2022/12/09 12:00:41;;;;;;;54.28;13.88;;;;;;;;;;5076744;28;20406;-79
2022/12/09 12:03:38;;;;;;;49.78;14.20;;;;;;;;;;5076697;28;20048;-79
2022/12/09 12:06:40;;;;;;;43.30;15.52;;;;;;;;;;5077393;28;20040;-80
2022/12/09 12:09:36;;;;;;;54.30;13.88;;;;;;;;;;5076159;28;20052;-78
2022/12/09 12:12:34;;;;;;;51.88;17.55;;;;;;;;;;5075926;28;20036;-80
2022/12/09 12:15:43;;;;;;;43.00;14.80;;;;;;;;;;5076301;28;20048;-78
2022/12/09 12:18:31;;;;;;;54.65;14.85;;;;;;;;;;5042163;28;20044;-78
2022/12/09 12:21:16;;;;;;;51.72;15.40;;;;;;;;;;5076254;28;20416;-79
2022/12/09 12:24:13;;;;;;;29.48;8.40;;;;;;;;;;5076994;28;20040;-79
2022/12/09 12:27:01;;;;;;;37.75;13.25;;;;;;;;;;5076021;28;20045;-79
2022/12/09 12:29:56;;;;;;;44.85;16.38;;;;;;;;;;5077559;28;20048;-80
2022/12/09 12:32:54;;;;;;;47.38;12.93;;;;;;;;;;5077310;28;20036;-81
2022/12/09 12:36:01;;;;;;;49.53;14.82;;;;;;;;;;5077106;28;20044;-80
2022/12/09 12:39:12;;;;;;;36.42;12.95;;;;;;;;;;5087225;28;20037;-79
2022/12/09 12:42:19;;;;;;;30.05;10.25;;;;;;;;;;5085035;28;20040;-78
2022/12/09 12:48:37;;;;;;;35.75;13.45;;;;;;;;;;5075305;28;20390;-78
2022/12/09 12:52:00;;;;;;;37.45;11.82;;;;;;;;;;5075399;28;20366;-79
2022/12/09 12:55:16;;;;;;;50.67;16.10;;;;;;;;;;5074536;28;20044;-78
2022/12/09 12:58:39;;;;;;;52.33;12.07;;;;;;;;;;5081358;28;20483;-79
2022/12/09 13:01:59;;;;;;;47.75;13.25;;;;;;;;;;5074935;28;20048;-80
2022/12/09 13:04:48;;;;;;;48.22;14.25;;;;;;;;;;5034577;28;20052;-79
2022/12/09 13:07:48;;;;;;;42.78;13.85;;;;;;;;;;5074906;28;20036;-78
2022/12/09 13:10:49;;;;;;;50.47;11.73;;;;;;;;;;5075008;28;20056;-78
2022/12/09 13:13:53;;;;;;;37.20;10.52;;;;;;;;;;5074590;28;20048;-79
2022/12/09 13:16:40;;;;;;;40.25;12.75;;;;;;;;;;5075370;28;20036;-79
2022/12/09 13:19:50;;;;;;;40.30;13.35;;;;;;;;;;5074598;28;20397;-80
2022/12/09 13:22:46;;;;;;;49.15;12.25;;;;;;;;;;5074500;28;20398;-78
2022/12/09 13:26:07;;;;;;;44.33;12.63;;;;;;;;;;5074606;28;20044;-78
2022/12/09 13:29:01;;;;;;;39.55;11.70;;;;;;;;;;5074547;28;20044;-78
2022/12/09 13:32:11;;;;;;;42.60;13.65;;;;;;;;;;5066391;28;20036;-78
2022/12/09 13:35:11;;;;;;;52.78;14.32;;;;;;;;;;5074439;28;20402;-83
2022/12/09 13:37:58;;;;;;;52.58;13.70;;;;;;;;;;5074977;28;20040;-77
2022/12/09 13:40:43;;;;;;;51.95;15.23;;;;;;;;;;5074414;28;20049;-77
2022/12/09 13:43:30;;;;;;;41.17;14.48;;;;;;;;;;5080959;28;20048;-78
2022/12/09 13:46:24;;;;;;;46.38;17.27;;;;;;;;;;5074943;28;20041;-80
2022/12/09 13:49:17;;;;;;;46.72;17.35;;;;;;;;;;5074875;28;20044;-79
2022/12/09 13:52:03;;;;;;;44.63;16.08;;;;;;;;;;5074163;28;20041;-78
2022/12/09 13:54:48;;;;;;;43.08;14.85;;;;;;;;;;5074415;28;20493;-80
2022/12/09 13:57:56;;;;;;;46.17;19.45;;;;;;;;;;5075436;28;20397;-79
2022/12/09 14:00:43;;;;;;;36.95;14.68;;;;;;;;;;5074254;28;20040;-79
2022/12/09 14:03:34;;;;;;;42.35;14.32;;;;;;;;;;5073670;28;20052;-79
2022/12/09 14:06:28;;;;;;;40.60;13.32;;;;;;;;;;5073805;28;20045;-78
2022/12/09 14:09:22;;;;;;;39.88;15.77;;;;;;;;;;5073998;28;20056;-79
2022/12/09 14:12:27;;;;;;;37.30;15.70;;;;;;;;;;5074440;28;20037;-76
2022/12/09 14:15:24;;;;;;;44.55;19.08;;;;;;;;;;5080730;28;20041;-79
2022/12/09 14:18:43;;;;;;;48.55;17.55;;;;;;;;;;5073402;28;20044;-79
2022/12/09 14:21:30;;;;;;;40.22;11.98;;;;;;;;;;5032123;28;20052;-78
2022/12/09 14:24:16;;;;;;;40.92;15.25;;;;;;;;;;5073612;28;20402;-78
2022/12/09 14:27:06;;;;;;;69.13;27.88;;;;;;;;;;5073825;28;20048;-78
2022/12/09 14:30:02;;;;;;;103.25;43.85;;;;;;;;;;5073632;28;20044;-79
2022/12/09 14:32:55;;;;;;;225.95;111.18;;;;;;;;;;5073651;28;20382;-78
2022/12/09 14:35:45;;;;;;;65.05;32.50;;;;;;;;;;5073468;28;20375;-78
2022/12/09 14:38:43;;;;;;;93.53;37.30;;;;;;;;;;5073239;28;20033;-80
2022/12/09 14:41:50;;;;;;;62.85;31.00;;;;;;;;;;5073878;28;20053;-79
2022/12/09 14:44:47;;;;;;;59.25;26.73;;;;;;;;;;5064988;28;20036;-78
2022/12/09 14:47:40;;;;;;;44.40;18.45;;;;;;;;;;5073471;28;20044;-78
2022/12/09 14:50:27;;;;;;;45.92;16.48;;;;;;;;;;5073275;28;20382;-78
2022/12/09 14:53:22;;;;;;;53.17;21.48;;;;;;;;;;5083968;28;20036;-82
2022/12/09 14:56:13;;;;;;;47.58;17.88;;;;;;;;;;5094594;28;20041;-80
2022/12/09 14:59:05;;;;;;;42.30;14.50;;;;;;;;;;5073358;28;20056;-80
2022/12/09 15:02:03;;;;;;;33.80;10.80;;;;;;;;;;5074169;28;20048;-79
2022/12/09 15:04:49;;;;;;;28.60;11.75;;;;;;;;;;5073348;28;20053;-80
2022/12/09 15:07:35;;;;;;;47.50;17.92;;;;;;;;;;5072673;28;20402;-80
2022/12/09 15:10:33;;;;;;;49.53;22.75;;;;;;;;;;5073157;28;20045;-79
2022/12/09 15:13:19;;;;;;;40.08;17.90;;;;;;;;;;5073105;28;20044;-78
2022/12/09 15:16:10;;;;;;;52.92;15.73;;;;;;;;;;5073222;28;20393;-80
2022/12/09 15:18:56;;;;;;;39.53;11.27;;;;;;;;;;5073290;28;20036;-79
2022/12/09 15:21:46;;;;;;;45.13;14.25;;;;;;;;;;5072884;28;20040;-81
2022/12/09 15:24:31;;;;;;;38.10;14.93;;;;;;;;;;5072818;28;20032;-81
2022/12/09 15:27:20;;;;;;;33.75;15.07;;;;;;;;;;5079098;28;20041;-80
2022/12/09 15:30:21;;;;;;;75.03;28.50;;;;;;;;;;5074736;28;20052;-79
2022/12/09 15:33:18;;;;;;;61.13;24.02;;;;;;;;;;5075094;28;20048;-79
2022/12/09 15:36:08;;;;;;;72.07;24.73;;;;;;;;;;5075636;28;20398;-78
2022/12/09 15:39:01;;;;;;;60.00;22.10;;;;;;;;;;5074925;28;20041;-79
2022/12/09 15:42:08;;;;;;;49.30;20.40;;;;;;;;;;5076332;28;20048;-79
2022/12/09 15:44:54;;;;;;;76.63;26.50;;;;;;;;;;5076407;28;20394;-80
2022/12/09 15:47:44;;;;;;;55.40;24.92;;;;;;;;;;5076169;28;20044;-79
2022/12/09 15:50:32;;;;;;;72.75;36.25;;;;;;;;;;5082823;28;20049;-79
2022/12/09 15:53:24;;;;;;;43.53;18.55;;;;;;;;;;5075829;28;20041;-80
2022/12/09 15:56:18;;;;;;;54.85;19.05;;;;;;;;;;5076222;28;20048;-80
2022/12/09 15:59:20;;;;;;;34.90;15.70;;;;;;;;;;5076084;28;20049;-80
2022/12/09 16:02:08;;;;;;;72.13;31.38;;;;;;;;;;5082705;28;20478;-78
2022/12/09 16:04:57;;;;;;;56.17;30.58;;;;;;;;;;5082705;28;20044;-80
2022/12/09 16:07:54;;;;;;;46.95;22.67;;;;;;;;;;5076029;28;20048;-78
2022/12/09 16:10:46;;;;;;;62.30;18.67;;;;;;;;;;5076147;28;20044;-78
2022/12/09 16:13:32;;;;;;;268.35;121.45;;;;;;;;;;5075771;28;20036;-78
2022/12/09 16:16:46;;;;;;;62.92;30.00;;;;;;;;;;5075620;28;20044;-78
2022/12/09 16:19:40;;;;;;;65.38;26.50;;;;;;;;;;5071741;28;20045;-80
2022/12/09 16:22:31;;;;;;;25.30;9.52;;;;;;;;;;5075888;28;20048;-80
2022/12/09 16:25:25;;;;;;;33.97;13.75;;;;;;;;;;5082233;28;20036;-78
2022/12/09 16:28:22;;;;;;;37.88;13.73;;;;;;;;;;5075822;28;20048;-80
2022/12/09 16:31:17;;;;;;;55.13;19.08;;;;;;;;;;5067312;28;20497;-80